Karin S — V2BM6 — position and weather

sailwx.info

Track history (hours):
 
Tides and Currents Weather Stations Pressure Air Temp Water Temp Dewpoint Dewpoint Depression Visibility Wind Speed Wind Dir Waves Ship Positions

Karin S

Last reported at 2017-Sep-04 18:50 UTC. Time now 2017-Oct-19 09:25 UTC.
Position N 38°05' E 001°32'.
Warning: this ship's position is 44 days out of date.

Length 141 m; draft 8.5 m.

Type: Cargo ship. MMSI: 304871000.

Date/timePositionNaut miles runAvg speedWind from/ knotsBaromVisibWave heightAir tempDewpointWater temp
2017-Sep-04 18:50N 38°05' E 001°32'412.4
2017-Sep-04 18:30N 38°02' E 001°35'612.5
2017-Sep-04 18:00N 37°57' E 001°41'1212.6
2017-Sep-04 17:03N 37°49' E 001°52'112.4
2017-Sep-04 17:00N 37°48' E 001°52'3412.2
2017-Sep-04 14:12N 37°26' E 002°25'212.1
2017-Sep-04 13:59N 37°25' E 002°28'612.1
2017-Sep-04 13:28N 37°19' E 002°31'611.9
2017-Sep-04 13:00N 37°14' E 002°35'612.3
2017-Sep-04 12:30N 37°10' E 002°41'713.5
2017-Sep-04 12:00N 37°05' E 002°47'912.0
2017-Sep-04 11:18N 36°59' E 002°54'312.0
2017-Sep-04 11:00N 36°57' E 002°57'712.4
2017-Sep-04 10:26N 36°52' E 003°04'611.2
2017-Sep-04 09:56N 36°47' E 003°07'2 0.2
2017-Sep-03 21:09N 36°46' E 003°04'0 0.0
2017-Sep-03 20:51N 36°46' E 003°04'0 0.0
2017-Sep-03 20:27N 36°46' E 003°04'  
2017-Aug-29 12:50N 36°46' E 003°04'0 0.0
2017-Aug-29 00:14N 36°46' E 003°04'0 0.0
2017-Aug-28 20:59N 36°46' E 003°04'1 2.7
2017-Aug-28 20:30N 36°46' E 003°06'4 1.8
2017-Aug-28 18:09N 36°50' E 003°07'5 4.8
2017-Aug-28 17:01N 36°55' E 003°05'012.0
2017-Aug-28 17:00N 36°55' E 003°05'612.3
2017-Aug-28 16:30N 37°01' E 003°02'712.7
2017-Aug-28 15:59N 37°08' E 002°60'612.0
2017-Aug-28 15:27N 37°14' E 002°59'612.6
2017-Aug-28 15:00N 37°19' E 002°58'712.6
2017-Aug-28 14:26N 37°26' E 002°55'512.4
2017-Aug-28 14:00N 37°31' E 002°53'612.3
2017-Aug-28 13:30N 37°37' E 002°51'612.1
2017-Aug-28 13:00N 37°43' E 002°49'612.0
2017-Aug-28 12:30N 37°49' E 002°47'612.0
2017-Aug-28 12:00N 37°55' E 002°45'612.0
2017-Aug-28 11:30N 38°00' E 002°43'612.1
2017-Aug-28 11:00N 38°06' E 002°40'612.0
2017-Aug-28 10:30N 38°12' E 002°38'612.0
2017-Aug-28 10:00N 38°18' E 002°36'612.0
2017-Aug-28 09:30N 38°23' E 002°35'611.9
2017-Aug-28 09:00N 38°29' E 002°33'611.9
2017-Aug-28 08:30N 38°35' E 002°31'611.9
2017-Aug-28 08:00N 38°41' E 002°29'612.0
2017-Aug-28 07:30N 38°47' E 002°27'612.9
2017-Aug-28 07:00N 38°53' E 002°25'611.7
2017-Aug-28 06:30N 38°59' E 002°23'611.8
2017-Aug-28 06:00N 39°04' E 002°21'611.9
2017-Aug-28 05:30N 39°10' E 002°19'611.9
2017-Aug-28 05:00N 39°16' E 002°17'611.9
2017-Aug-28 04:30N 39°22' E 002°15'611.8
2017-Aug-28 04:00N 39°27' E 002°13'611.8
2017-Aug-28 03:30N 39°33' E 002°11'611.7
2017-Aug-28 03:00N 39°39' E 002°10'612.0
2017-Aug-28 02:30N 39°45' E 002°10'612.1
2017-Aug-28 02:00N 39°51' E 002°10'612.3
2017-Aug-28 01:30N 39°57' E 002°10'611.8
2017-Aug-28 01:00N 40°03' E 002°10'611.9
2017-Aug-28 00:30N 40°09' E 002°10'612.2
2017-Aug-28 00:00N 40°15' E 002°10'612.1
2017-Aug-27 23:30N 40°21' E 002°09'611.9
2017-Aug-27 23:00N 40°27' E 002°10'612.0
2017-Aug-27 22:30N 40°33' E 002°10'612.1
2017-Aug-27 22:00N 40°39' E 002°11'612.1
2017-Aug-27 21:30N 40°45' E 002°11'612.1
2017-Aug-27 21:00N 40°51' E 002°11'612.0
2017-Aug-27 20:30N 40°57' E 002°11'612.3
2017-Aug-27 20:00N 41°03' E 002°11'612.3
2017-Aug-27 19:30N 41°09' E 002°11'612.2
2017-Aug-27 19:00N 41°15' E 002°11'3 6.9
2017-Aug-27 18:30N 41°19' E 002°09'0 0.2
2017-Aug-27 17:58N 41°19' E 002°09'0 0.0
2017-Aug-27 17:30N 41°19' E 002°09'0 0.0
2017-Aug-27 17:00N 41°19' E 002°09'0 0.0
2017-Aug-27 15:30N 41°19' E 002°09'0 0.0
2017-Aug-27 14:56N 41°19' E 002°09'0 0.0
2017-Aug-27 14:26N 41°19' E 002°09'0 0.0
2017-Aug-27 13:59N 41°19' E 002°09'0 0.0
2017-Aug-27 13:14N 41°19' E 002°09'0 0.0
2017-Aug-27 12:52N 41°19' E 002°09'0 0.0
2017-Aug-27 12:22N 41°19' E 002°09'0 0.0
2017-Aug-27 11:47N 41°19' E 002°09'0 0.0
2017-Aug-27 11:21N 41°19' E 002°09'0 0.0
2017-Aug-27 11:00N 41°19' E 002°09'0 0.0
2017-Aug-27 10:27N 41°19' E 002°09'0 0.0
2017-Aug-27 10:00N 41°19' E 002°09'0 0.0
2017-Aug-27 09:29N 41°19' E 002°09'0 0.0
2017-Aug-27 08:41N 41°19' E 002°09'0 0.0
2017-Aug-27 08:30N 41°19' E 002°09'0 0.0
2017-Aug-27 07:03N 41°19' E 002°09'0 0.0
2017-Aug-27 06:48N 41°19' E 002°09'0 0.0
2017-Aug-27 06:27N 41°19' E 002°09'0 0.0
2017-Aug-27 05:57N 41°19' E 002°09'0 0.0
2017-Aug-27 05:27N 41°19' E 002°09'0 0.1
2017-Aug-27 05:00N 41°19' E 002°09'2 4.7
2017-Aug-27 04:30N 41°17' E 002°11'1 2.1
2017-Aug-27 04:00N 41°16' E 002°11'0 1.0
2017-Aug-27 03:30N 41°16' E 002°11'0 0.5
2017-Aug-27 03:00N 41°15' E 002°10'3 5.4
2017-Aug-27 02:29N 41°13' E 002°08'511.3
2017-Aug-27 02:00N 41°09' E 002°04'611.6
2017-Aug-27 01:30N 41°04' E 002°00'611.7
2017-Aug-27 01:00N 40°59' E 001°56'611.5
2017-Aug-27 00:30N 40°54' E 001°52'611.9
2017-Aug-27 00:00N 40°49' E 001°48'612.0
2017-Aug-26 23:30N 40°44' E 001°43'612.1
2017-Aug-26 23:00N 40°39' E 001°39'612.1
2017-Aug-26 22:30N 40°34' E 001°34'612.1
2017-Aug-26 22:00N 40°29' E 001°30'611.8
2017-Aug-26 21:30N 40°24' E 001°26'611.8
2017-Aug-26 21:00N 40°19' E 001°22'611.6
2017-Aug-26 20:29N 40°14' E 001°18'511.5
2017-Aug-26 20:00N 40°09' E 001°14'611.4
2017-Aug-26 19:29N 40°04' E 001°10'611.6
2017-Aug-26 19:00N 39°59' E 001°06'611.7
2017-Aug-26 18:27N 39°54' E 001°01'511.8
2017-Aug-26 18:00N 39°49' E 000°57'611.6
2017-Aug-26 17:30N 39°46' E 000°52'612.0
2017-Aug-26 17:00N 39°44' E 000°44'612.0
2017-Aug-26 16:30N 39°41' E 000°37'812.0
2017-Aug-26 15:49N 39°38' E 000°27'38 2.2
2017-Aug-25 22:35N 39°26' W 000°19'0 0.0
2017-Aug-25 22:15N 39°26' W 000°19'  
Track history (hours):
 
Tides and Currents Weather Stations Pressure Air Temp Water Temp Dewpoint Dewpoint Depression Visibility Wind Speed Wind Dir Waves Ship Positions

Karin S

Last reported at 2017-Sep-04 18:50 UTC. Time now 2017-Oct-19 09:25 UTC.
Position N 38°05' E 001°32'.
Warning: this ship's position is 44 days out of date.

Length 141 m; draft 8.5 m.

Type: Cargo ship. MMSI: 304871000.

Date/timePositionNaut miles runAvg speedWind from/ knotsBaromVisibWave heightAir tempDewpointWater temp
2017-Sep-04 18:50N 38°05' E 001°32'412.4
2017-Sep-04 18:30N 38°02' E 001°35'612.5
2017-Sep-04 18:00N 37°57' E 001°41'1212.6
2017-Sep-04 17:03N 37°49' E 001°52'112.4
2017-Sep-04 17:00N 37°48' E 001°52'3412.2
2017-Sep-04 14:12N 37°26' E 002°25'212.1
2017-Sep-04 13:59N 37°25' E 002°28'612.1
2017-Sep-04 13:28N 37°19' E 002°31'611.9
2017-Sep-04 13:00N 37°14' E 002°35'612.3
2017-Sep-04 12:30N 37°10' E 002°41'713.5
2017-Sep-04 12:00N 37°05' E 002°47'912.0
2017-Sep-04 11:18N 36°59' E 002°54'312.0
2017-Sep-04 11:00N 36°57' E 002°57'712.4
2017-Sep-04 10:26N 36°52' E 003°04'611.2
2017-Sep-04 09:56N 36°47' E 003°07'2 0.2
2017-Sep-03 21:09N 36°46' E 003°04'0 0.0
2017-Sep-03 20:51N 36°46' E 003°04'0 0.0
2017-Sep-03 20:27N 36°46' E 003°04'  
2017-Aug-29 12:50N 36°46' E 003°04'0 0.0
2017-Aug-29 00:14N 36°46' E 003°04'0 0.0
2017-Aug-28 20:59N 36°46' E 003°04'1 2.7
2017-Aug-28 20:30N 36°46' E 003°06'4 1.8
2017-Aug-28 18:09N 36°50' E 003°07'5 4.8
2017-Aug-28 17:01N 36°55' E 003°05'012.0
2017-Aug-28 17:00N 36°55' E 003°05'612.3
2017-Aug-28 16:30N 37°01' E 003°02'712.7
2017-Aug-28 15:59N 37°08' E 002°60'612.0
2017-Aug-28 15:27N 37°14' E 002°59'612.6
2017-Aug-28 15:00N 37°19' E 002°58'712.6
2017-Aug-28 14:26N 37°26' E 002°55'512.4
2017-Aug-28 14:00N 37°31' E 002°53'612.3
2017-Aug-28 13:30N 37°37' E 002°51'612.1
2017-Aug-28 13:00N 37°43' E 002°49'612.0
2017-Aug-28 12:30N 37°49' E 002°47'612.0
2017-Aug-28 12:00N 37°55' E 002°45'612.0
2017-Aug-28 11:30N 38°00' E 002°43'612.1
2017-Aug-28 11:00N 38°06' E 002°40'612.0
2017-Aug-28 10:30N 38°12' E 002°38'612.0
2017-Aug-28 10:00N 38°18' E 002°36'612.0
2017-Aug-28 09:30N 38°23' E 002°35'611.9
2017-Aug-28 09:00N 38°29' E 002°33'611.9
2017-Aug-28 08:30N 38°35' E 002°31'611.9
2017-Aug-28 08:00N 38°41' E 002°29'612.0
2017-Aug-28 07:30N 38°47' E 002°27'612.9
2017-Aug-28 07:00N 38°53' E 002°25'611.7
2017-Aug-28 06:30N 38°59' E 002°23'611.8
2017-Aug-28 06:00N 39°04' E 002°21'611.9
2017-Aug-28 05:30N 39°10' E 002°19'611.9
2017-Aug-28 05:00N 39°16' E 002°17'611.9
2017-Aug-28 04:30N 39°22' E 002°15'611.8
2017-Aug-28 04:00N 39°27' E 002°13'611.8
2017-Aug-28 03:30N 39°33' E 002°11'611.7
2017-Aug-28 03:00N 39°39' E 002°10'612.0
2017-Aug-28 02:30N 39°45' E 002°10'612.1
2017-Aug-28 02:00N 39°51' E 002°10'612.3
2017-Aug-28 01:30N 39°57' E 002°10'611.8
2017-Aug-28 01:00N 40°03' E 002°10'611.9
2017-Aug-28 00:30N 40°09' E 002°10'612.2
2017-Aug-28 00:00N 40°15' E 002°10'612.1
2017-Aug-27 23:30N 40°21' E 002°09'611.9
2017-Aug-27 23:00N 40°27' E 002°10'612.0
2017-Aug-27 22:30N 40°33' E 002°10'612.1
2017-Aug-27 22:00N 40°39' E 002°11'612.1
2017-Aug-27 21:30N 40°45' E 002°11'612.1
2017-Aug-27 21:00N 40°51' E 002°11'612.0
2017-Aug-27 20:30N 40°57' E 002°11'612.3
2017-Aug-27 20:00N 41°03' E 002°11'612.3
2017-Aug-27 19:30N 41°09' E 002°11'612.2
2017-Aug-27 19:00N 41°15' E 002°11'3 6.9
2017-Aug-27 18:30N 41°19' E 002°09'0 0.2
2017-Aug-27 17:58N 41°19' E 002°09'0 0.0
2017-Aug-27 17:30N 41°19' E 002°09'0 0.0
2017-Aug-27 17:00N 41°19' E 002°09'0 0.0
2017-Aug-27 15:30N 41°19' E 002°09'0 0.0
2017-Aug-27 14:56N 41°19' E 002°09'0 0.0
2017-Aug-27 14:26N 41°19' E 002°09'0 0.0
2017-Aug-27 13:59N 41°19' E 002°09'0 0.0
2017-Aug-27 13:14N 41°19' E 002°09'0 0.0
2017-Aug-27 12:52N 41°19' E 002°09'0 0.0
2017-Aug-27 12:22N 41°19' E 002°09'0 0.0
2017-Aug-27 11:47N 41°19' E 002°09'0 0.0
2017-Aug-27 11:21N 41°19' E 002°09'0 0.0
2017-Aug-27 11:00N 41°19' E 002°09'0 0.0
2017-Aug-27 10:27N 41°19' E 002°09'0 0.0
2017-Aug-27 10:00N 41°19' E 002°09'0 0.0
2017-Aug-27 09:29N 41°19' E 002°09'0 0.0
2017-Aug-27 08:41N 41°19' E 002°09'0 0.0
2017-Aug-27 08:30N 41°19' E 002°09'0 0.0
2017-Aug-27 07:03N 41°19' E 002°09'0 0.0
2017-Aug-27 06:48N 41°19' E 002°09'0 0.0
2017-Aug-27 06:27N 41°19' E 002°09'0 0.0
2017-Aug-27 05:57N 41°19' E 002°09'0 0.0
2017-Aug-27 05:27N 41°19' E 002°09'0 0.1
2017-Aug-27 05:00N 41°19' E 002°09'2 4.7
2017-Aug-27 04:30N 41°17' E 002°11'1 2.1
2017-Aug-27 04:00N 41°16' E 002°11'0 1.0
2017-Aug-27 03:30N 41°16' E 002°11'0 0.5
2017-Aug-27 03:00N 41°15' E 002°10'3 5.4
2017-Aug-27 02:29N 41°13' E 002°08'511.3
2017-Aug-27 02:00N 41°09' E 002°04'611.6
2017-Aug-27 01:30N 41°04' E 002°00'611.7
2017-Aug-27 01:00N 40°59' E 001°56'611.5
2017-Aug-27 00:30N 40°54' E 001°52'611.9
2017-Aug-27 00:00N 40°49' E 001°48'612.0
2017-Aug-26 23:30N 40°44' E 001°43'612.1
2017-Aug-26 23:00N 40°39' E 001°39'612.1
2017-Aug-26 22:30N 40°34' E 001°34'612.1
2017-Aug-26 22:00N 40°29' E 001°30'611.8
2017-Aug-26 21:30N 40°24' E 001°26'611.8
2017-Aug-26 21:00N 40°19' E 001°22'611.6
2017-Aug-26 20:29N 40°14' E 001°18'511.5
2017-Aug-26 20:00N 40°09' E 001°14'611.4
2017-Aug-26 19:29N 40°04' E 001°10'611.6
2017-Aug-26 19:00N 39°59' E 001°06'611.7
2017-Aug-26 18:27N 39°54' E 001°01'511.8
2017-Aug-26 18:00N 39°49' E 000°57'611.6
2017-Aug-26 17:30N 39°46' E 000°52'612.0
2017-Aug-26 17:00N 39°44' E 000°44'612.0
2017-Aug-26 16:30N 39°41' E 000°37'812.0
2017-Aug-26 15:49N 39°38' E 000°27'38 2.2
2017-Aug-25 22:35N 39°26' W 000°19'0 0.0
2017-Aug-25 22:15N 39°26' W 000°19'  

Dump ship's entire track history